Time;durP1;ratioP1;P1;durP2;ratioP2;P2;SDS_P1;SDS_P2;PMS_P1;PMS_P2;Temp;Humidity;BMP_temperature;BMP_pressure;BME280_temperature;BME280_humidity;BME280_pressure;Samples;Min_cycle;Max_cycle;Signal;HPM_P1;HPM_P2
2021/12/22 00:00:21;;;;;;;13.82;8.02;;;-9.60;81.70;;;;;;5073192;28;20028;-65
2021/12/22 00:02:48;;;;;;;16.73;9.52;;;-9.70;81.60;;;;;;5073391;28;20028;-64
2021/12/22 00:05:22;;;;;;;14.95;8.65;;;-9.70;81.90;;;;;;5073182;28;20498;-65
2021/12/22 00:07:47;;;;;;;14.88;8.13;;;-9.70;81.90;;;;;;5073308;28;20047;-66
2021/12/22 00:10:14;;;;;;;15.55;8.10;;;-9.70;82.00;;;;;;5073131;28;20021;-65
2021/12/22 00:12:39;;;;;;;16.45;7.95;;;-9.70;82.10;;;;;;5073008;28;20048;-64
2021/12/22 00:15:06;;;;;;;15.40;8.70;;;-9.70;82.10;;;;;;5072954;28;20142;-64
2021/12/22 00:17:32;;;;;;;17.52;8.45;;;-9.60;81.50;;;;;;5072183;28;20100;-64
2021/12/22 00:19:58;;;;;;;14.90;8.35;;;-9.60;81.20;;;;;;5072977;28;20134;-65
2021/12/22 00:22:23;;;;;;;15.93;8.50;;;-9.70;81.50;;;;;;5072788;28;20039;-65
2021/12/22 00:24:49;;;;;;;15.05;8.23;;;-9.70;81.70;;;;;;5072726;28;20059;-65
2021/12/22 00:27:15;;;;;;;14.38;8.32;;;-9.80;81.50;;;;;;5054931;28;20060;-65
2021/12/22 00:29:47;;;;;;;13.70;8.35;;;-9.80;81.70;;;;;;5052699;28;20025;-65
2021/12/22 00:32:15;;;;;;;15.50;8.80;;;-9.80;81.30;;;;;;5052600;28;20044;-66
2021/12/22 00:34:53;;;;;;;17.33;8.75;;;-9.90;81.40;;;;;;5052670;28;20025;-65
2021/12/22 00:37:29;;;;;;;15.27;8.10;;;-9.90;81.40;;;;;;5052590;28;20105;-64
2021/12/22 00:39:56;;;;;;;15.25;8.13;;;-10.10;81.30;;;;;;5052615;28;20021;-63
2021/12/22 00:42:24;;;;;;;15.63;8.18;;;-10.10;81.30;;;;;;5052480;28;20061;-65
2021/12/22 00:44:53;;;;;;;13.88;7.82;;;-10.20;81.50;;;;;;5052329;28;20021;-66
2021/12/22 00:47:20;;;;;;;14.85;7.85;;;-10.20;81.80;;;;;;5051115;28;20388;-66
2021/12/22 00:49:46;;;;;;;15.00;8.57;;;-10.30;82.00;;;;;;5052749;28;20025;-64
2021/12/22 00:52:12;;;;;;;15.00;8.30;;;-10.30;81.90;;;;;;5052263;28;20173;-64
2021/12/22 00:54:37;;;;;;;16.25;8.57;;;-10.30;82.00;;;;;;5052196;28;20103;-66
2021/12/22 00:57:05;;;;;;;14.60;8.93;;;-10.40;82.20;;;;;;5050956;28;20047;-64
2021/12/22 00:59:36;;;;;;;17.00;9.20;;;-10.50;82.40;;;;;;5052100;28;20029;-65
2021/12/22 01:02:05;;;;;;;16.23;8.55;;;-10.50;82.60;;;;;;5052197;28;20021;-65
2021/12/22 01:04:31;;;;;;;17.23;8.60;;;-10.60;82.70;;;;;;5050786;28;20060;-64
2021/12/22 01:06:56;;;;;;;14.55;8.45;;;-10.60;82.80;;;;;;5052034;28;20060;-65
2021/12/22 01:09:22;;;;;;;17.45;8.80;;;-10.60;82.90;;;;;;5051894;28;20388;-65
2021/12/22 01:11:49;;;;;;;16.98;9.45;;;-10.60;82.90;;;;;;5051814;28;20409;-65
2021/12/22 01:14:15;;;;;;;17.05;8.63;;;-10.70;83.00;;;;;;5051796;28;20425;-65
2021/12/22 01:16:47;;;;;;;17.60;8.52;;;-10.70;83.30;;;;;;5051819;28;20125;-65
2021/12/22 01:19:17;;;;;;;17.65;8.85;;;-10.70;83.30;;;;;;5052097;28;20070;-65
2021/12/22 01:21:52;;;;;;;17.52;8.88;;;-10.80;83.20;;;;;;5052188;28;20021;-65
2021/12/22 01:26:51;;;;;;;15.70;8.25;;;-10.90;83.40;;;;;;5065111;28;20023;-65
2021/12/22 01:29:17;;;;;;;14.82;8.15;;;-10.90;83.40;;;;;;5070821;28;20375;-64
2021/12/22 01:31:44;;;;;;;15.63;8.45;;;-10.90;83.60;;;;;;5071742;28;20025;-65
2021/12/22 01:34:10;;;;;;;16.35;8.45;;;-10.90;83.80;;;;;;5071370;28;20021;-65
2021/12/22 01:36:36;;;;;;;15.73;8.60;;;-10.90;83.70;;;;;;5071715;28;20388;-64
2021/12/22 01:39:04;;;;;;;16.25;8.95;;;-10.90;83.80;;;;;;5071606;28;20020;-65
2021/12/22 01:41:30;;;;;;;18.40;9.05;;;-11.00;83.80;;;;;;5071582;28;20036;-65
2021/12/22 01:43:55;;;;;;;16.67;9.27;;;-11.00;83.80;;;;;;5071342;28;20028;-66
2021/12/22 01:49:14;;;;;;;21.00;10.20;;;-11.10;83.90;;;;;;5071750;28;20376;-65
2021/12/22 01:51:39;;;;;;;24.40;12.63;;;-11.20;83.90;;;;;;5071378;28;20105;-65
2021/12/22 01:54:31;;;;;;;22.02;11.80;;;-11.10;84.00;;;;;;5069771;28;20078;-65
2021/12/22 01:57:06;;;;;;;22.10;11.80;;;-11.20;84.20;;;;;;5070985;28;20040;-64
2021/12/22 01:59:32;;;;;;;24.23;12.32;;;-11.30;84.30;;;;;;5071422;28;20107;-65
2021/12/22 02:02:00;;;;;;;21.90;12.40;;;-11.30;84.40;;;;;;5071204;28;20025;-64
2021/12/22 02:04:26;;;;;;;19.75;11.32;;;-11.30;84.50;;;;;;5071058;28;20159;-65
2021/12/22 02:06:51;;;;;;;22.48;11.32;;;-11.40;84.80;;;;;;5071116;28;20052;-67
2021/12/22 02:09:34;;;;;;;22.60;12.07;;;-11.40;85.00;;;;;;5070345;28;20086;-65
2021/12/22 02:12:00;;;;;;;;;;;-11.50;84.90;;;;;;5071578;28;20036;-65
2021/12/22 02:14:26;;;;;;;20.50;11.52;;;-11.50;85.00;;;;;;5070930;28;19916;-65
2021/12/22 02:16:51;;;;;;;22.60;12.95;;;-11.50;85.10;;;;;;5070777;28;20404;-65
2021/12/22 02:19:17;;;;;;;23.45;13.45;;;-11.50;85.20;;;;;;5071126;28;20106;-65
2021/12/22 02:21:49;;;;;;;23.02;13.45;;;-11.60;85.50;;;;;;5071194;28;20036;-65
2021/12/22 02:24:15;;;;;;;25.83;14.13;;;-11.60;85.70;;;;;;5070893;28;20028;-65
2021/12/22 02:27:00;;;;;;;25.80;13.95;;;-11.60;85.70;;;;;;5057977;28;20032;-66
2021/12/22 02:29:35;;;;;;;24.48;14.73;;;-11.60;85.80;;;;;;5050928;28;20047;-65
2021/12/22 02:34:41;;;;;;;;;;;-11.70;86.10;;;;;;5051284;28;20404;-65
2021/12/22 02:37:12;;;;;;;27.20;13.10;;;-11.70;85.90;;;;;;5050924;28;19904;-64
2021/12/22 02:39:44;;;;;;;25.52;13.15;;;-11.70;86.20;;;;;;5052182;28;20043;-65
2021/12/22 02:42:12;;;;;;;24.42;12.90;;;-11.70;86.20;;;;;;5054921;28;20032;-65
2021/12/22 02:44:37;;;;;;;27.95;13.38;;;-11.70;86.90;;;;;;5054911;28;20064;-65
2021/12/22 02:47:21;;;;;;;26.45;13.20;;;-11.70;86.40;;;;;;5054580;28;20056;-65
2021/12/22 02:49:48;;;;;;;24.70;12.52;;;-11.70;86.20;;;;;;5054957;28;20047;-65
2021/12/22 02:52:15;;;;;;;24.63;12.23;;;-11.70;86.30;;;;;;5054353;28;20037;-65
2021/12/22 02:54:48;;;;;;;23.08;12.52;;;-11.60;86.20;;;;;;5053382;28;20025;-65
2021/12/22 02:57:23;;;;;;;22.92;12.35;;;-11.60;86.20;;;;;;5054706;28;20394;-64
2021/12/22 03:00:45;;;;;;;25.80;11.82;;;-11.70;86.00;;;;;;5054523;28;20033;-64
2021/12/22 03:05:08;;;;;;;25.23;12.63;;;-11.80;86.20;;;;;;5054261;28;20445;-65
2021/12/22 03:07:34;;;;;;;24.50;12.43;;;-11.80;86.10;;;;;;5054153;28;20028;-64
2021/12/22 03:10:07;;;;;;;27.42;13.05;;;-11.80;86.10;;;;;;5054315;28;20030;-64
2021/12/22 03:12:35;;;;;;;26.33;13.07;;;-11.80;86.20;;;;;;5054466;28;20019;-65
2021/12/22 03:15:04;;;;;;;21.88;11.95;;;-11.70;86.20;;;;;;5054080;28;20023;-65
2021/12/22 03:17:30;;;;;;;22.58;12.25;;;-11.80;86.10;;;;;;5053985;28;20049;-65
2021/12/22 03:19:55;;;;;;;24.63;13.18;;;-11.80;86.30;;;;;;5054088;28;20435;-65
2021/12/22 03:22:22;;;;;;;27.77;13.20;;;-11.80;86.10;;;;;;5052692;28;20025;-65
2021/12/22 03:24:50;;;;;;;21.65;11.93;;;-11.80;86.10;;;;;;5054008;28;20032;-65
2021/12/22 03:27:16;;;;;;;23.80;11.80;;;-11.80;86.10;;;;;;5071341;28;20032;-65
2021/12/22 03:29:42;;;;;;;25.48;12.02;;;-11.80;85.90;;;;;;5074006;28;20035;-65
2021/12/22 03:32:09;;;;;;;22.90;11.88;;;-11.80;85.60;;;;;;5073923;28;20388;-65
2021/12/22 03:34:35;;;;;;;22.73;11.02;;;-11.80;85.70;;;;;;5073901;28;20028;-65
2021/12/22 03:37:01;;;;;;;21.40;11.18;;;-11.90;85.80;;;;;;5073866;28;20031;-66
2021/12/22 03:39:28;;;;;;;23.73;11.80;;;-11.90;85.80;;;;;;5073669;28;20029;-65
2021/12/22 03:41:54;;;;;;;20.95;11.27;;;-12.00;86.00;;;;;;5073594;28;20086;-66
2021/12/22 03:44:19;;;;;;;23.55;13.50;;;-12.00;86.30;;;;;;5073523;28;20055;-65
2021/12/22 03:46:46;;;;;;;26.48;14.70;;;-12.00;86.30;;;;;;5073614;28;20029;-64
2021/12/22 03:49:15;;;;;;;31.02;17.17;;;-12.00;86.20;;;;;;5073768;28;20028;-65
2021/12/22 03:51:41;;;;;;;36.25;18.90;;;-12.00;86.40;;;;;;5072530;28;20065;-65
2021/12/22 03:54:08;;;;;;;34.17;19.17;;;-12.10;86.30;;;;;;5071909;28;20031;-65
2021/12/22 03:56:34;;;;;;;33.97;17.73;;;-12.10;86.30;;;;;;5073322;28;20479;-65
2021/12/22 03:59:00;;;;;;;29.73;17.30;;;-12.10;86.50;;;;;;5073323;28;20029;-65
2021/12/22 04:01:26;;;;;;;30.33;16.33;;;-12.10;86.60;;;;;;5073289;28;20090;-67
2021/12/22 04:03:56;;;;;;;33.42;16.65;;;-12.10;86.60;;;;;;5073234;28;20020;-64
2021/12/22 04:06:22;;;;;;;28.70;15.50;;;-12.10;86.50;;;;;;5073000;28;20035;-66
2021/12/22 04:08:47;;;;;;;28.92;16.40;;;-12.10;86.50;;;;;;5073056;28;20021;-65
2021/12/22 04:11:13;;;;;;;30.02;15.23;;;-12.10;86.50;;;;;;5071904;28;20390;-66
2021/12/22 04:13:39;;;;;;;33.08;16.13;;;-12.10;86.60;;;;;;5071798;28;20528;-65
2021/12/22 04:16:04;;;;;;;31.73;15.88;;;-12.20;86.60;;;;;;5072856;28;20024;-65
2021/12/22 04:18:30;;;;;;;37.45;16.42;;;-12.10;86.60;;;;;;5072924;28;20030;-66
2021/12/22 04:20:56;;;;;;;33.08;16.73;;;-12.10;86.60;;;;;;5073057;28;20460;-66
2021/12/22 04:23:22;;;;;;;31.10;14.65;;;-12.10;86.70;;;;;;5072823;28;20028;-65
2021/12/22 04:25:47;;;;;;;27.45;13.45;;;-12.10;86.80;;;;;;5067346;28;20021;-65
2021/12/22 04:28:13;;;;;;;27.85;13.90;;;-12.10;86.90;;;;;;5053309;28;20120;-65
2021/12/22 04:30:47;;;;;;;27.98;14.23;;;-12.10;86.70;;;;;;5052759;28;20469;-65
2021/12/22 04:33:14;;;;;;;27.50;13.55;;;-12.10;86.60;;;;;;5052776;28;20017;-65
2021/12/22 04:35:40;;;;;;;26.88;14.35;;;-12.10;86.70;;;;;;5052545;28;20013;-65
2021/12/22 04:38:06;;;;;;;30.80;14.65;;;-12.10;86.70;;;;;;5052416;28;20029;-65
2021/12/22 04:40:31;;;;;;;25.70;13.77;;;-12.20;86.60;;;;;;5052427;28;20441;-65
2021/12/22 04:42:57;;;;;;;28.50;15.10;;;-12.10;86.70;;;;;;5052520;28;20496;-66
2021/12/22 04:45:23;;;;;;;28.60;15.13;;;-12.10;86.80;;;;;;5052904;28;20782;-65
2021/12/22 04:47:50;;;;;;;30.25;15.13;;;-12.20;86.80;;;;;;5052878;28;20445;-65
2021/12/22 04:50:19;;;;;;;26.08;14.27;;;-12.10;86.60;;;;;;5052309;28;20032;-65
2021/12/22 04:52:59;;;;;;;30.73;15.77;;;-12.10;86.60;;;;;;5051165;28;20642;-65
2021/12/22 04:55:27;;;;;;;29.15;14.77;;;-12.20;86.50;;;;;;5052396;28;20021;-66
2021/12/22 04:57:55;;;;;;;33.45;16.40;;;-12.10;86.60;;;;;;5052304;28;20029;-66
2021/12/22 05:00:22;;;;;;;29.00;15.32;;;-12.10;86.70;;;;;;5052136;28;20029;-66
2021/12/22 05:02:49;;;;;;;28.33;14.70;;;-12.10;86.80;;;;;;5051957;28;20027;-65
2021/12/22 05:05:15;;;;;;;32.97;16.85;;;-12.10;86.90;;;;;;5051957;28;20029;-67
2021/12/22 05:07:42;;;;;;;27.75;14.63;;;-12.00;86.80;;;;;;5050726;28;20479;-66
2021/12/22 05:10:08;;;;;;;25.23;13.73;;;-12.00;87.10;;;;;;5051794;28;20017;-66
2021/12/22 05:12:34;;;;;;;27.13;14.20;;;-12.00;87.30;;;;;;5051805;28;20064;-65
2021/12/22 05:15:00;;;;;;;23.60;13.18;;;-12.00;87.20;;;;;;5051844;28;20059;-65
2021/12/22 05:20:24;;;;;;;22.77;12.48;;;-11.90;87.30;;;;;;5039807;28;20044;-65
2021/12/22 05:22:51;;;;;;;25.55;13.23;;;-11.80;87.30;;;;;;5052033;28;20110;-65
2021/12/22 05:25:17;;;;;;;24.85;12.77;;;-11.80;87.20;;;;;;5052902;28;20109;-66
2021/12/22 05:27:43;;;;;;;24.15;12.20;;;-11.80;87.10;;;;;;5071816;28;20032;-66
2021/12/22 05:30:11;;;;;;;22.80;11.77;;;-11.70;87.20;;;;;;5071259;28;20032;-66
2021/12/22 05:32:37;;;;;;;29.63;13.65;;;-11.80;87.20;;;;;;5072132;28;20380;-65
2021/12/22 05:35:06;;;;;;;30.45;15.32;;;-11.70;87.20;;;;;;5071399;28;20028;-65
2021/12/22 05:37:33;;;;;;;39.08;19.15;;;-11.70;87.00;;;;;;5071965;28;20036;-66
2021/12/22 05:39:58;;;;;;;40.00;20.13;;;-11.80;86.90;;;;;;5071708;28;20033;-66
2021/12/22 05:42:26;;;;;;;42.30;21.98;;;-11.80;87.00;;;;;;5071214;28;20495;-65
2021/12/22 05:44:52;;;;;;;47.10;24.13;;;-11.80;87.00;;;;;;5071760;28;20035;-67
2021/12/22 05:47:17;;;;;;;54.88;26.88;;;-11.80;86.90;;;;;;5071210;28;20383;-66
2021/12/22 05:49:44;;;;;;;52.65;27.33;;;-11.80;86.70;;;;;;5071706;28;20036;-65
2021/12/22 05:52:10;;;;;;;55.30;30.13;;;-11.80;86.60;;;;;;5071291;28;20048;-66
2021/12/22 05:54:36;;;;;;;46.63;24.58;;;-11.80;86.80;;;;;;5071138;28;20398;-66
2021/12/22 05:57:02;;;;;;;40.42;22.38;;;-11.90;87.00;;;;;;5071395;28;20033;-66
2021/12/22 05:59:28;;;;;;;45.15;23.45;;;-11.90;87.20;;;;;;5071092;28;20040;-66
2021/12/22 06:01:53;;;;;;;48.55;23.95;;;-11.90;87.30;;;;;;5071202;28;20032;-65
2021/12/22 06:04:19;;;;;;;44.88;23.23;;;-11.90;87.30;;;;;;5070984;28;20029;-66
2021/12/22 06:06:45;;;;;;;57.78;26.40;;;-11.90;87.40;;;;;;5071043;28;20037;-65
2021/12/22 06:09:10;;;;;;;48.17;25.05;;;-11.80;87.30;;;;;;5069759;28;20107;-65
2021/12/22 06:11:36;;;;;;;50.65;25.25;;;-11.80;87.60;;;;;;5071226;28;20066;-66
2021/12/22 06:14:01;;;;;;;52.92;26.20;;;-11.80;87.70;;;;;;5072071;28;20032;-65
2021/12/22 06:16:30;;;;;;;49.88;26.02;;;-11.70;87.50;;;;;;5077173;28;20056;-67
2021/12/22 06:19:03;;;;;;;59.25;29.02;;;-11.70;87.50;;;;;;5076303;28;20028;-66
2021/12/22 06:21:30;;;;;;;60.72;29.92;;;-11.60;87.30;;;;;;5077834;28;20024;-67
2021/12/22 06:23:55;;;;;;;53.85;27.73;;;-11.50;86.70;;;;;;5077938;28;20052;-66
2021/12/22 06:26:21;;;;;;;57.45;27.85;;;-11.50;86.60;;;;;;5066952;28;20068;-67
2021/12/22 06:28:47;;;;;;;60.92;27.85;;;-11.40;86.50;;;;;;5057181;28;20083;-65
2021/12/22 06:31:13;;;;;;;53.60;26.52;;;-11.40;86.00;;;;;;5057568;28;20029;-66
2021/12/22 06:33:39;;;;;;;47.13;23.15;;;-11.40;85.90;;;;;;5057380;28;20460;-67
2021/12/22 06:36:05;;;;;;;50.75;23.92;;;-11.40;85.90;;;;;;5057801;28;20025;-66
2021/12/22 06:38:31;;;;;;;49.90;23.77;;;-11.40;85.80;;;;;;5057325;28;20029;-66
2021/12/22 06:40:56;;;;;;;48.05;23.02;;;-11.30;85.90;;;;;;5057319;28;20028;-66
2021/12/22 06:43:24;;;;;;;39.80;20.65;;;-11.30;86.00;;;;;;5057479;28;20036;-66
2021/12/22 06:45:49;;;;;;;31.20;16.35;;;-11.20;86.40;;;;;;5057313;28;20029;-68
2021/12/22 06:48:15;;;;;;;27.15;15.93;;;-11.20;86.80;;;;;;5057977;28;20460;-67
2021/12/22 06:50:40;;;;;;;26.92;15.20;;;-11.00;87.00;;;;;;5057910;28;20510;-66
2021/12/22 06:53:06;;;;;;;27.35;14.85;;;-10.90;86.50;;;;;;5057380;28;20024;-66
2021/12/22 06:55:32;;;;;;;25.50;13.65;;;-10.80;86.50;;;;;;5057216;28;20021;-67
2021/12/22 06:57:59;;;;;;;28.08;13.98;;;-10.60;86.60;;;;;;5057341;28;20029;-67
2021/12/22 07:00:25;;;;;;;23.83;13.55;;;-10.50;86.70;;;;;;5057503;28;20094;-67
2021/12/22 07:02:52;;;;;;;22.35;12.32;;;-10.30;86.90;;;;;;5057148;28;20096;-65
2021/12/22 07:05:19;;;;;;;24.73;13.85;;;-10.10;86.70;;;;;;5057088;28;20021;-66
2021/12/22 07:07:44;;;;;;;58.50;31.92;;;-10.00;86.30;;;;;;5057096;28;20468;-66
2021/12/22 07:10:11;;;;;;;41.10;22.77;;;-9.80;85.90;;;;;;5055822;28;20031;-66
2021/12/22 07:12:40;;;;;;;24.25;14.18;;;-9.70;86.00;;;;;;5057056;28;20029;-67
2021/12/22 07:15:09;;;;;;;25.88;15.07;;;-9.50;85.80;;;;;;5057616;28;20028;-66
2021/12/22 07:17:39;;;;;;;47.92;28.48;;;-9.30;85.00;;;;;;5056993;28;20053;-66
2021/12/22 07:20:05;;;;;;;29.88;18.15;;;-9.10;84.60;;;;;;5057659;28;20091;-67
2021/12/22 07:22:32;;;;;;;26.55;17.45;;;-9.00;83.90;;;;;;5072482;28;20414;-66
2021/12/22 07:24:58;;;;;;;23.83;15.55;;;-8.90;83.10;;;;;;5070806;28;20032;-66
2021/12/22 07:27:24;;;;;;;20.50;12.88;;;-8.80;82.90;;;;;;5072842;28;20028;-67
2021/12/22 07:29:49;;;;;;;22.30;14.05;;;-8.80;82.20;;;;;;5071568;28;20387;-66
2021/12/22 07:32:15;;;;;;;22.60;13.30;;;-8.80;81.70;;;;;;5063934;28;20025;-66
2021/12/22 07:34:40;;;;;;;22.23;13.10;;;-8.90;81.70;;;;;;5069826;28;20349;-67
2021/12/22 07:37:23;;;;;;;22.35;12.45;;;-8.90;81.20;;;;;;5053802;28;20079;-66
2021/12/22 07:39:49;;;;;;;22.17;12.50;;;-8.90;80.80;;;;;;5066457;28;20456;-68
2021/12/22 07:42:15;;;;;;;26.17;14.68;;;-8.90;80.70;;;;;;5073313;28;20036;-67
2021/12/22 07:44:41;;;;;;;22.77;13.98;;;-8.80;80.90;;;;;;5073242;28;20104;-67
2021/12/22 07:47:06;;;;;;;55.88;29.30;;;-8.70;79.70;;;;;;5073252;28;20096;-67
2021/12/22 07:49:32;;;;;;;31.33;18.75;;;-8.80;79.30;;;;;;5059617;28;20032;-67
2021/12/22 07:51:58;;;;;;;31.30;17.73;;;-8.70;79.40;;;;;;5053594;28;20068;-66
2021/12/22 07:54:24;;;;;;;20.58;12.35;;;-8.70;79.40;;;;;;5062516;28;20032;-67
2021/12/22 07:56:49;;;;;;;17.13;10.60;;;-8.60;78.80;;;;;;5073763;28;20064;-66
2021/12/22 07:59:15;;;;;;;17.40;10.88;;;-8.60;77.80;;;;;;5073397;28;20055;-65
2021/12/22 08:01:41;;;;;;;24.92;15.35;;;-8.60;77.70;;;;;;5062924;28;20077;-66
2021/12/22 08:04:06;;;;;;;18.80;12.07;;;-8.60;77.50;;;;;;5062340;28;20057;-66
2021/12/22 08:06:32;;;;;;;20.23;10.98;;;-8.60;76.60;;;;;;5056269;28;20039;-65
2021/12/22 08:08:58;;;;;;;18.55;11.00;;;-8.60;77.40;;;;;;5056715;28;20353;-65
2021/12/22 08:11:24;;;;;;;16.42;10.70;;;-8.50;76.40;;;;;;5071039;28;20036;-68
2021/12/22 08:13:50;;;;;;;17.17;10.13;;;-8.40;76.30;;;;;;5073134;28;20535;-66
2021/12/22 08:16:15;;;;;;;26.23;15.75;;;-8.30;75.60;;;;;;5073254;28;20037;-67
2021/12/22 08:18:41;;;;;;;22.92;13.55;;;-8.10;75.40;;;;;;5073054;28;20028;-66
2021/12/22 08:21:07;;;;;;;19.10;11.70;;;-8.00;74.60;;;;;;5072866;28;20028;-66
2021/12/22 08:23:32;;;;;;;16.52;9.65;;;-7.80;73.40;;;;;;5072927;28;20044;-67
2021/12/22 08:25:58;;;;;;;18.38;11.43;;;-7.70;72.40;;;;;;5062445;28;20025;-65
2021/12/22 08:28:24;;;;;;;16.60;9.95;;;-7.70;72.70;;;;;;5072891;28;20109;-65
2021/12/22 08:30:49;;;;;;;19.17;11.45;;;-7.60;72.90;;;;;;5072909;28;20028;-64
2021/12/22 08:33:22;;;;;;;17.73;10.90;;;-7.40;72.40;;;;;;5070883;28;20033;-65
2021/12/22 08:38:52;;;;;;;18.60;10.48;;;-7.20;71.20;;;;;;5072912;28;20059;-67
2021/12/22 08:41:26;;;;;;;15.80;9.85;;;-7.20;70.90;;;;;;5073235;28;20029;-66
2021/12/22 08:43:55;;;;;;;17.08;10.40;;;-7.20;70.40;;;;;;5057290;28;20020;-67
2021/12/22 08:46:21;;;;;;;15.80;9.05;;;-7.20;70.80;;;;;;5053472;28;20033;-67
2021/12/22 08:48:47;;;;;;;13.68;8.63;;;-7.30;70.20;;;;;;5052583;28;20120;-67
2021/12/22 08:51:13;;;;;;;19.73;10.18;;;-7.30;70.90;;;;;;5052472;28;20362;-68
2021/12/22 08:53:41;;;;;;;19.45;10.00;;;-7.20;70.80;;;;;;5052312;28;20025;-68
2021/12/22 08:56:07;;;;;;;19.10;10.43;;;-7.10;70.70;;;;;;5052527;28;20461;-69
2021/12/22 08:58:33;;;;;;;20.13;9.93;;;-7.00;70.30;;;;;;5052512;28;20017;-69
2021/12/22 09:00:59;;;;;;;24.63;10.57;;;-6.90;69.40;;;;;;5052294;28;20100;-69
2021/12/22 09:03:24;;;;;;;20.90;10.68;;;-6.80;69.10;;;;;;5071126;28;20103;-68
2021/12/22 09:05:50;;;;;;;17.42;9.63;;;-6.60;69.00;;;;;;5072451;28;20025;-69
2021/12/22 09:08:16;;;;;;;17.65;10.13;;;-6.50;68.70;;;;;;5061045;28;20033;-68
2021/12/22 09:10:42;;;;;;;13.93;8.50;;;-6.60;70.20;;;;;;5056687;28;20043;-68
2021/12/22 09:13:07;;;;;;;14.57;8.57;;;-6.70;73.90;;;;;;5052970;28;20108;-68
2021/12/22 09:15:33;;;;;;;16.70;9.82;;;-7.00;73.60;;;;;;5052573;28;20025;-67
2021/12/22 09:17:59;;;;;;;19.73;10.45;;;-7.10;74.40;;;;;;5056551;28;20047;-79
2021/12/22 09:20:25;;;;;;;17.13;9.43;;;-7.00;74.30;;;;;;5067452;28;20438;-71
2021/12/22 09:22:51;;;;;;;15.00;8.93;;;-6.90;75.20;;;;;;5061019;28;20070;-69
2021/12/22 09:25:17;;;;;;;14.65;8.85;;;-6.50;75.30;;;;;;5069087;28;20497;-70
2021/12/22 09:27:42;;;;;;;14.25;8.15;;;-6.10;73.90;;;;;;5056279;28;20029;-69
2021/12/22 09:30:09;;;;;;;14.43;9.18;;;-5.80;70.60;;;;;;5051808;28;20543;-68
2021/12/22 09:32:34;;;;;;;15.38;8.50;;;-5.50;69.70;;;;;;5051656;28;20017;-70
2021/12/22 09:35:03;;;;;;;15.82;9.07;;;-5.30;68.90;;;;;;5051803;28;20375;-70
2021/12/22 09:37:29;;;;;;;14.57;8.75;;;-5.10;69.50;;;;;;5051738;28;20448;-69
2021/12/22 09:39:54;;;;;;;14.18;8.00;;;-4.90;67.70;;;;;;5051712;28;20166;-70
2021/12/22 09:42:20;;;;;;;13.38;7.75;;;-4.80;65.10;;;;;;5054032;28;20017;-75
2021/12/22 09:44:47;;;;;;;14.35;8.15;;;-5.00;64.50;;;;;;5070664;28;20039;-75
2021/12/22 09:47:16;;;;;;;13.27;7.70;;;-5.00;64.90;;;;;;5072193;28;20043;-74
2021/12/22 09:52:16;;;;;;;11.25;6.47;;;-4.60;64.00;;;;;;5069217;28;20028;-73
2021/12/22 09:54:42;;;;;;;13.52;7.53;;;-4.60;63.80;;;;;;5071175;28;20101;-71
2021/12/22 09:57:08;;;;;;;12.30;6.90;;;-4.20;63.20;;;;;;5070951;28;20056;-72
2021/12/22 09:59:35;;;;;;;11.73;7.47;;;-3.90;60.80;;;;;;5058113;28;20029;-74
2021/12/22 10:02:01;;;;;;;13.57;7.18;;;-3.80;60.20;;;;;;5051715;28;20112;-72
2021/12/22 10:04:27;;;;;;;12.75;7.20;;;-3.60;61.70;;;;;;5058191;28;20139;-71
2021/12/22 10:06:57;;;;;;;14.82;8.48;;;-3.10;61.40;;;;;;5071246;28;20035;-69
2021/12/22 10:09:24;;;;;;;13.32;8.18;;;-2.70;60.40;;;;;;5061735;28;20066;-71
2021/12/22 10:11:51;;;;;;;23.30;12.95;;;-2.30;58.60;;;;;;5059235;28;20078;-69
2021/12/22 10:14:26;;;;;;;36.38;19.48;;;-1.90;56.60;;;;;;5052147;28;20020;-69
2021/12/22 10:16:55;;;;;;;23.73;14.15;;;-1.60;56.10;;;;;;5059565;28;20146;-71
2021/12/22 10:19:24;;;;;;;31.30;18.27;;;-1.80;54.30;;;;;;5069320;28;20064;-68
2021/12/22 10:21:54;;;;;;;49.53;26.75;;;-1.70;56.80;;;;;;5067896;28;20033;-70
2021/12/22 10:24:37;;;;;;;22.10;11.50;;;-1.70;54.60;;;;;;5064492;28;20103;-68
2021/12/22 10:27:11;;;;;;;15.32;7.75;;;-1.80;53.40;;;;;;5062202;28;20024;-70
2021/12/22 10:29:37;;;;;;;17.15;9.40;;;-2.20;52.10;;;;;;5066101;28;20077;-69
2021/12/22 10:32:09;;;;;;;16.52;10.63;;;-2.80;53.80;;;;;;5067098;28;20032;-68
2021/12/22 10:34:35;;;;;;;15.15;8.80;;;-3.30;54.90;;;;;;5071120;28;20111;-68
2021/12/22 10:37:01;;;;;;;14.00;8.88;;;-3.70;55.70;;;;;;5070527;28;20039;-69
2021/12/22 10:39:32;;;;;;;14.07;8.35;;;-4.10;55.80;;;;;;5069346;28;20036;-67
2021/12/22 10:42:08;;;;;;;13.75;7.45;;;-4.40;56.50;;;;;;5070257;28;20493;-69
2021/12/22 10:44:36;;;;;;;13.77;7.90;;;-4.70;57.40;;;;;;5063200;28;20028;-68
2021/12/22 10:47:32;;;;;;;14.43;7.45;;;-5.00;57.20;;;;;;5050571;28;20116;-69
2021/12/22 10:49:59;;;;;;;11.77;6.95;;;-5.40;57.60;;;;;;5063543;28;20379;-68
2021/12/22 10:52:26;;;;;;;11.90;7.05;;;-5.60;58.80;;;;;;5070702;28;20033;-69
2021/12/22 10:55:14;;;;;;;14.23;8.40;;;-5.70;59.60;;;;;;5070827;28;20126;-68
2021/12/22 10:57:43;;;;;;;15.88;8.82;;;-5.70;60.10;;;;;;5051612;28;20120;-69
2021/12/22 11:00:18;;;;;;;12.30;7.65;;;-5.70;60.20;;;;;;5050123;28;20031;-68
2021/12/22 11:02:50;;;;;;;10.60;6.72;;;-5.80;60.10;;;;;;5073358;28;20024;-69
2021/12/22 11:05:28;;;;;;;11.40;7.07;;;-5.80;59.70;;;;;;5061971;28;20028;-70
2021/12/22 11:07:54;;;;;;;15.93;9.45;;;-5.80;59.90;;;;;;5054398;28;20116;-68
2021/12/22 11:10:39;;;;;;;20.55;10.48;;;-5.90;60.30;;;;;;5054608;28;20025;-70
2021/12/22 11:13:06;;;;;;;19.85;9.43;;;-6.00;60.80;;;;;;5069416;28;20448;-69
2021/12/22 11:15:46;;;;;;;14.68;8.38;;;-6.20;61.70;;;;;;5075688;28;20024;-70
2021/12/22 11:18:28;;;;;;;17.73;9.57;;;-6.30;62.10;;;;;;5072788;28;20044;-68
2021/12/22 11:21:30;;;;;;;13.48;8.15;;;-6.20;62.40;;;;;;5071839;28;20037;-71
2021/12/22 11:23:56;;;;;;;15.98;8.90;;;-6.30;62.60;;;;;;5061476;28;20033;-68
2021/12/22 11:26:22;;;;;;;14.18;8.18;;;-6.30;63.00;;;;;;5070849;28;20535;-67
2021/12/22 11:28:48;;;;;;;20.92;13.57;;;-6.20;63.60;;;;;;5061242;28;20036;-67
2021/12/22 11:31:14;;;;;;;46.97;26.92;;;-6.10;63.00;;;;;;5055123;28;20029;-67
2021/12/22 11:33:41;;;;;;;46.65;25.00;;;-6.10;63.10;;;;;;5053786;28;20029;-67
2021/12/22 11:36:07;;;;;;;97.90;48.67;;;-6.10;63.00;;;;;;5053812;28;20032;-68
2021/12/22 11:38:33;;;;;;;65.70;33.10;;;-6.00;62.80;;;;;;5054063;28;20021;-66
2021/12/22 11:41:13;;;;;;;62.22;31.83;;;-6.00;62.70;;;;;;5052517;28;20025;-66
2021/12/22 11:43:40;;;;;;;37.05;19.90;;;-5.90;62.50;;;;;;5054096;28;20025;-68
2021/12/22 11:46:07;;;;;;;19.45;10.68;;;-6.10;62.40;;;;;;5053919;28;20682;-67
2021/12/22 11:48:34;;;;;;;23.02;13.63;;;-6.30;63.50;;;;;;5054274;28;20147;-66
2021/12/22 11:51:01;;;;;;;16.17;9.30;;;-6.40;64.10;;;;;;5053869;28;20029;-67
2021/12/22 11:53:50;;;;;;;17.17;10.57;;;-6.60;64.60;;;;;;5053557;28;20443;-66
2021/12/22 11:56:45;;;;;;;17.42;8.85;;;-6.70;65.50;;;;;;5062492;28;20020;-67
2021/12/22 11:59:30;;;;;;;15.18;8.80;;;-6.80;65.60;;;;;;5053514;28;20029;-67
2021/12/22 12:02:17;;;;;;;14.52;8.32;;;-7.00;66.20;;;;;;5053602;28;20048;-68
2021/12/22 12:04:44;;;;;;;13.90;7.97;;;-7.00;67.00;;;;;;5054040;28;20025;-70
2021/12/22 12:07:10;;;;;;;21.73;11.00;;;-7.20;67.50;;;;;;5053218;28;20020;-68
2021/12/22 12:09:46;;;;;;;16.77;9.30;;;-7.30;67.80;;;;;;5053413;28;20082;-67
2021/12/22 12:12:45;;;;;;;16.02;9.20;;;-7.30;67.80;;;;;;5052392;28;20070;-68
2021/12/22 12:15:23;;;;;;;21.83;11.93;;;-7.40;68.40;;;;;;5068694;28;20502;-68
2021/12/22 12:23:30;;;;;;;14.93;8.60;;;-7.40;68.70;;;;;;5072914;28;20506;-67
2021/12/22 12:25:58;;;;;;;13.85;7.60;;;-7.50;69.20;;;;;;5072916;28;20379;-66
2021/12/22 12:28:25;;;;;;;16.42;9.02;;;-7.50;69.20;;;;;;5072714;28;20158;-67
2021/12/22 12:31:00;;;;;;;13.98;8.20;;;-7.60;69.40;;;;;;5073040;28;20016;-68
2021/12/22 12:33:29;;;;;;;13.57;8.07;;;-7.60;69.40;;;;;;5071406;28;20020;-67
2021/12/22 12:36:05;;;;;;;16.45;8.80;;;-7.60;68.70;;;;;;5073051;28;20407;-67
2021/12/22 12:38:39;;;;;;;15.65;8.30;;;-7.60;68.60;;;;;;5072521;28;20036;-67
2021/12/22 12:41:14;;;;;;;13.40;8.23;;;-7.70;68.20;;;;;;5072596;28;20024;-67
2021/12/22 12:43:53;;;;;;;14.07;8.18;;;-7.70;68.10;;;;;;5071595;28;20464;-68
2021/12/22 12:46:23;;;;;;;14.80;8.32;;;-7.70;67.70;;;;;;5072936;28;20021;-66
2021/12/22 12:49:19;;;;;;;12.38;7.47;;;-7.70;67.50;;;;;;5073236;28;20029;-67
2021/12/22 12:51:46;;;;;;;13.38;7.93;;;-7.70;68.30;;;;;;5052251;28;20037;-67
2021/12/22 12:54:18;;;;;;;14.05;8.50;;;-7.70;68.90;;;;;;5061244;28;20467;-68
2021/12/22 12:57:00;;;;;;;15.77;8.95;;;-7.80;69.30;;;;;;5052321;28;20063;-66